MSC Armonia — H8EW — position and weather

sailwx.info

Track history (hours):
 
Tides and Currents Weather Stations Pressure Air Temp Water Temp Dewpoint Dewpoint Depression Visibility Wind Speed Wind Dir Waves Ship Positions

MSC Armonia

Operator: Mediterranean Shipping Company

Last reported at 2019-Aug-19 23:35 UTC. Time now 2019-Aug-22 09:09 UTC.
Position N 25°41' W 079°56'.

Length 275 m; draft 6.8 m.

Type: Ship. MMSI: 357281000.

Date/timePositionNaut miles runAvg speedWind from/ knotsBaromVisibWave heightAir tempDewpointWater temp
2019-Aug-19 23:35N 25°41' W 079°56'112.9
2019-Aug-19 23:30N 25°42' W 079°57'713.6
2019-Aug-19 23:00N 25°45' W 080°03'510.1
2019-Aug-19 22:30N 25°46' W 080°09'2 3.8
2019-Aug-19 22:00N 25°47' W 080°11'0 0.3
2019-Aug-19 21:30N 25°47' W 080°11'0 0.0
2019-Aug-19 21:00N 25°47' W 080°11'0 0.0
2019-Aug-19 20:30N 25°47' W 080°11'0 0.0
2019-Aug-19 20:00N 25°47' W 080°11'0 0.0
2019-Aug-19 19:30N 25°47' W 080°11'0 0.0
2019-Aug-19 19:00N 25°47' W 080°11'0 0.0
2019-Aug-19 18:30N 25°47' W 080°11'0 0.0
2019-Aug-19 18:00N 25°47' W 080°11'0 0.0
2019-Aug-19 17:30N 25°47' W 080°11'0 0.0
2019-Aug-19 17:00N 25°47' W 080°11'0 0.0
2019-Aug-19 16:30N 25°47' W 080°11'0 0.0
2019-Aug-19 16:00N 25°47' W 080°11'0 0.0
2019-Aug-19 15:30N 25°47' W 080°11'0 0.0
2019-Aug-19 15:00N 25°47' W 080°11'0 0.0
2019-Aug-19 14:30N 25°47' W 080°11'0 0.0
2019-Aug-19 14:00N 25°47' W 080°11'0 0.0
2019-Aug-19 13:30N 25°47' W 080°11'0 0.0
2019-Aug-19 13:00N 25°47' W 080°11'0 0.0
2019-Aug-19 12:30N 25°47' W 080°11'0 0.0
2019-Aug-19 12:00N 25°47' W 080°11'0 0.0
2019-Aug-19 11:30N 25°47' W 080°11'0 0.0
2019-Aug-19 11:00N 25°47' W 080°11'0 0.0
2019-Aug-19 10:30N 25°47' W 080°11'0 0.0
2019-Aug-19 10:01N 25°47' W 080°11'1 1.1
2019-Aug-19 09:31N 25°47' W 080°10'5 9.6
2019-Aug-19 09:01N 25°46' W 080°05'4 7.7
2019-Aug-19 08:31N 25°45' W 080°01'713.7
2019-Aug-19 08:00N 25°38' W 080°00'  
2019-Aug-16 21:56N 20°38' W 086°53'716.7
2019-Aug-16 21:30N 20°32' W 086°57'1 1.7
2019-Aug-16 21:00N 20°31' W 086°57'0 0.0
2019-Aug-16 20:30N 20°31' W 086°57'0 0.0
2019-Aug-16 19:57N 20°31' W 086°57'0 0.0
2019-Aug-16 19:30N 20°31' W 086°57'0 0.0
2019-Aug-16 19:00N 20°31' W 086°57'0 0.0
2019-Aug-16 18:30N 20°31' W 086°57'0 0.0
2019-Aug-16 18:00N 20°31' W 086°57'0 0.0
2019-Aug-16 17:30N 20°31' W 086°57'0 0.0
2019-Aug-16 17:00N 20°31' W 086°57'0 0.0
2019-Aug-16 16:30N 20°31' W 086°57'0 0.0
2019-Aug-16 16:00N 20°31' W 086°57'0 0.0
2019-Aug-16 15:30N 20°31' W 086°57'0 0.0
2019-Aug-16 15:00N 20°31' W 086°57'0 0.0
2019-Aug-16 14:30N 20°31' W 086°57'0 0.0
2019-Aug-16 14:00N 20°31' W 086°57'0 0.0
2019-Aug-16 13:30N 20°31' W 086°57'0 0.0
2019-Aug-16 13:00N 20°31' W 086°57'0 0.0
2019-Aug-16 12:30N 20°31' W 086°57'0 0.0
2019-Aug-16 12:01N 20°31' W 086°57'1 1.9
2019-Aug-16 11:31N 20°30' W 086°58'510.4
2019-Aug-16 11:00N 20°27' W 087°02'  
2019-Aug-12 23:32N 25°38' W 079°56'114.5
2019-Aug-12 23:30N 25°38' W 079°56'714.6
2019-Aug-12 23:01N 25°43' W 080°02'510.3
2019-Aug-12 22:30N 25°45' W 080°07'3 6.9
2019-Aug-12 22:00N 25°47' W 080°10'0 0.0
2019-Aug-12 21:24N 25°47' W 080°10'0 0.0
2019-Aug-12 21:00N 25°47' W 080°10'0 0.0
2019-Aug-12 20:30N 25°47' W 080°10'0 0.0
2019-Aug-12 20:00N 25°47' W 080°10'0 0.0
2019-Aug-12 19:30N 25°47' W 080°10'0 0.0
2019-Aug-12 19:00N 25°47' W 080°10'0 0.0
2019-Aug-12 18:30N 25°47' W 080°10'0 0.0
2019-Aug-12 18:00N 25°47' W 080°10'0 0.0
2019-Aug-12 17:31N 25°47' W 080°10'0 0.0
2019-Aug-12 17:00N 25°47' W 080°10'0 0.0
2019-Aug-12 16:30N 25°47' W 080°10'0 0.0
2019-Aug-12 16:00N 25°47' W 080°10'0 0.0
2019-Aug-12 15:30N 25°47' W 080°10'0 0.0
2019-Aug-12 15:00N 25°47' W 080°10'0 0.0
2019-Aug-12 14:31N 25°47' W 080°10'0 0.0
2019-Aug-12 13:58N 25°47' W 080°10'0 0.0
2019-Aug-12 13:30N 25°47' W 080°10'0 0.0
2019-Aug-12 13:01N 25°47' W 080°10'0 0.0
2019-Aug-12 12:31N 25°47' W 080°10'0 0.0
2019-Aug-12 12:00N 25°47' W 080°10'0 0.0
2019-Aug-12 11:30N 25°47' W 080°10'0 0.0
2019-Aug-12 11:00N 25°47' W 080°10'0 0.0
2019-Aug-12 10:30N 25°47' W 080°10'0 0.0
2019-Aug-12 10:00N 25°47' W 080°10'0 0.2
2019-Aug-12 09:30N 25°47' W 080°10'4 8.6
2019-Aug-12 09:00N 25°46' W 080°06'5 9.5
2019-Aug-12 08:30N 25°44' W 080°01'611.7
2019-Aug-12 08:00N 25°38' W 080°00'  
2019-Aug-10 01:43N 20°25' W 087°03'210.8
2019-Aug-10 01:30N 20°27' W 087°02'510.3
2019-Aug-10 01:00N 20°31' W 086°59'1 2.3
2019-Aug-10 00:28N 20°31' W 086°57'0 0.0
2019-Aug-09 23:55N 20°31' W 086°57'  
Track history (hours):
 
Tides and Currents Weather Stations Pressure Air Temp Water Temp Dewpoint Dewpoint Depression Visibility Wind Speed Wind Dir Waves Ship Positions

MSC Armonia

Operator: Mediterranean Shipping Company

Last reported at 2019-Aug-19 23:35 UTC. Time now 2019-Aug-22 09:09 UTC.
Position N 25°41' W 079°56'.

Length 275 m; draft 6.8 m.

Type: Ship. MMSI: 357281000.

Date/timePositionNaut miles runAvg speedWind from/ knotsBaromVisibWave heightAir tempDewpointWater temp
2019-Aug-19 23:35N 25°41' W 079°56'112.9
2019-Aug-19 23:30N 25°42' W 079°57'713.6
2019-Aug-19 23:00N 25°45' W 080°03'510.1
2019-Aug-19 22:30N 25°46' W 080°09'2 3.8
2019-Aug-19 22:00N 25°47' W 080°11'0 0.3
2019-Aug-19 21:30N 25°47' W 080°11'0 0.0
2019-Aug-19 21:00N 25°47' W 080°11'0 0.0
2019-Aug-19 20:30N 25°47' W 080°11'0 0.0
2019-Aug-19 20:00N 25°47' W 080°11'0 0.0
2019-Aug-19 19:30N 25°47' W 080°11'0 0.0
2019-Aug-19 19:00N 25°47' W 080°11'0 0.0
2019-Aug-19 18:30N 25°47' W 080°11'0 0.0
2019-Aug-19 18:00N 25°47' W 080°11'0 0.0
2019-Aug-19 17:30N 25°47' W 080°11'0 0.0
2019-Aug-19 17:00N 25°47' W 080°11'0 0.0
2019-Aug-19 16:30N 25°47' W 080°11'0 0.0
2019-Aug-19 16:00N 25°47' W 080°11'0 0.0
2019-Aug-19 15:30N 25°47' W 080°11'0 0.0
2019-Aug-19 15:00N 25°47' W 080°11'0 0.0
2019-Aug-19 14:30N 25°47' W 080°11'0 0.0
2019-Aug-19 14:00N 25°47' W 080°11'0 0.0
2019-Aug-19 13:30N 25°47' W 080°11'0 0.0
2019-Aug-19 13:00N 25°47' W 080°11'0 0.0
2019-Aug-19 12:30N 25°47' W 080°11'0 0.0
2019-Aug-19 12:00N 25°47' W 080°11'0 0.0
2019-Aug-19 11:30N 25°47' W 080°11'0 0.0
2019-Aug-19 11:00N 25°47' W 080°11'0 0.0
2019-Aug-19 10:30N 25°47' W 080°11'0 0.0
2019-Aug-19 10:01N 25°47' W 080°11'1 1.1
2019-Aug-19 09:31N 25°47' W 080°10'5 9.6
2019-Aug-19 09:01N 25°46' W 080°05'4 7.7
2019-Aug-19 08:31N 25°45' W 080°01'713.7
2019-Aug-19 08:00N 25°38' W 080°00'  
2019-Aug-16 21:56N 20°38' W 086°53'716.7
2019-Aug-16 21:30N 20°32' W 086°57'1 1.7
2019-Aug-16 21:00N 20°31' W 086°57'0 0.0
2019-Aug-16 20:30N 20°31' W 086°57'0 0.0
2019-Aug-16 19:57N 20°31' W 086°57'0 0.0
2019-Aug-16 19:30N 20°31' W 086°57'0 0.0
2019-Aug-16 19:00N 20°31' W 086°57'0 0.0
2019-Aug-16 18:30N 20°31' W 086°57'0 0.0
2019-Aug-16 18:00N 20°31' W 086°57'0 0.0
2019-Aug-16 17:30N 20°31' W 086°57'0 0.0
2019-Aug-16 17:00N 20°31' W 086°57'0 0.0
2019-Aug-16 16:30N 20°31' W 086°57'0 0.0
2019-Aug-16 16:00N 20°31' W 086°57'0 0.0
2019-Aug-16 15:30N 20°31' W 086°57'0 0.0
2019-Aug-16 15:00N 20°31' W 086°57'0 0.0
2019-Aug-16 14:30N 20°31' W 086°57'0 0.0
2019-Aug-16 14:00N 20°31' W 086°57'0 0.0
2019-Aug-16 13:30N 20°31' W 086°57'0 0.0
2019-Aug-16 13:00N 20°31' W 086°57'0 0.0
2019-Aug-16 12:30N 20°31' W 086°57'0 0.0
2019-Aug-16 12:01N 20°31' W 086°57'1 1.9
2019-Aug-16 11:31N 20°30' W 086°58'510.4
2019-Aug-16 11:00N 20°27' W 087°02'  
2019-Aug-12 23:32N 25°38' W 079°56'114.5
2019-Aug-12 23:30N 25°38' W 079°56'714.6
2019-Aug-12 23:01N 25°43' W 080°02'510.3
2019-Aug-12 22:30N 25°45' W 080°07'3 6.9
2019-Aug-12 22:00N 25°47' W 080°10'0 0.0
2019-Aug-12 21:24N 25°47' W 080°10'0 0.0
2019-Aug-12 21:00N 25°47' W 080°10'0 0.0
2019-Aug-12 20:30N 25°47' W 080°10'0 0.0
2019-Aug-12 20:00N 25°47' W 080°10'0 0.0
2019-Aug-12 19:30N 25°47' W 080°10'0 0.0
2019-Aug-12 19:00N 25°47' W 080°10'0 0.0
2019-Aug-12 18:30N 25°47' W 080°10'0 0.0
2019-Aug-12 18:00N 25°47' W 080°10'0 0.0
2019-Aug-12 17:31N 25°47' W 080°10'0 0.0
2019-Aug-12 17:00N 25°47' W 080°10'0 0.0
2019-Aug-12 16:30N 25°47' W 080°10'0 0.0
2019-Aug-12 16:00N 25°47' W 080°10'0 0.0
2019-Aug-12 15:30N 25°47' W 080°10'0 0.0
2019-Aug-12 15:00N 25°47' W 080°10'0 0.0
2019-Aug-12 14:31N 25°47' W 080°10'0 0.0
2019-Aug-12 13:58N 25°47' W 080°10'0 0.0
2019-Aug-12 13:30N 25°47' W 080°10'0 0.0
2019-Aug-12 13:01N 25°47' W 080°10'0 0.0
2019-Aug-12 12:31N 25°47' W 080°10'0 0.0
2019-Aug-12 12:00N 25°47' W 080°10'0 0.0
2019-Aug-12 11:30N 25°47' W 080°10'0 0.0
2019-Aug-12 11:00N 25°47' W 080°10'0 0.0
2019-Aug-12 10:30N 25°47' W 080°10'0 0.0
2019-Aug-12 10:00N 25°47' W 080°10'0 0.2
2019-Aug-12 09:30N 25°47' W 080°10'4 8.6
2019-Aug-12 09:00N 25°46' W 080°06'5 9.5
2019-Aug-12 08:30N 25°44' W 080°01'611.7
2019-Aug-12 08:00N 25°38' W 080°00'  
2019-Aug-10 01:43N 20°25' W 087°03'210.8
2019-Aug-10 01:30N 20°27' W 087°02'510.3
2019-Aug-10 01:00N 20°31' W 086°59'1 2.3
2019-Aug-10 00:28N 20°31' W 086°57'0 0.0
2019-Aug-09 23:55N 20°31' W 086°57'  

Dump ship's entire track history